Flight Track Log - Related Links

Times and Time Zones

All times are in EDT time to prevent confusion due to time zone crossing. See the UAL395 flight status page for this flight to view local times or setup timezone preferences in your user account.

Time Position Orientation Groundspeed Altitude Reporting Facility
EDT Latitude Longitude Course Direction KTS MPH feet Rate Location/Type
Mon 10:14:20 AM 42.3500 -71.0167 240° Southwest 158 182 900  Level KA90
Mon 10:16:00 AM 42.4170 -70.7506 124° Southeast  Level FlightAware Approximate
Mon 10:16:02 AM 42.3131 -70.9128 116° Southeast 205 236 3,900  Level Boston Center
Mon 10:17:00 AM 42.3372 -70.7241 172° South  Level FlightAware Approximate
Mon 10:17:03 AM 42.3325 -70.8253 73° East 240 276 6,200  Level Boston Center
Mon 10:18:00 AM 42.2686 -70.7638 228° Southwest  Level FlightAware Approximate
Mon 10:18:01 AM 42.3019 -70.7250 112° Southeast 256 295 9,300  Level Boston Center
Mon 10:19:00 AM 42.2174 -70.8539 240° Southwest  Level FlightAware Approximate
Mon 10:19:02 AM 42.2144 -70.7331 184° South 223 257 11,000  Level Boston Center
Mon 10:20:02 AM 42.1728 -70.8742 248° West 228 262 12,700 2,361 Climbing Boston Center
Mon 10:21:04 AM 42.1578 -70.9922 260° West 324 373 15,800 1,664 Climbing Boston Center
Mon 10:22:01 AM 42.1367 -71.1467 260° West 375 432 16,000 102 Climbing Boston Center
Mon 10:23:02 AM 42.1214 -71.2786 261° West 392 451 16,000  Level Boston Center
Mon 10:24:03 AM 42.1042 -71.4328 261° West 392 451 16,000  Level Boston Center
Mon 10:25:03 AM 42.0864 -71.5617 260° West 392 451 16,000  Level Boston Center
Mon 10:26:03 AM 42.0708 -71.7017 262° West 392 451 16,000  Level Boston Center
Mon 10:27:02 AM 42.0508 -71.8614 260° West 392 451 16,000  Level Boston Center
Mon 10:29:03 AM 42.0144 -72.1300 260° West 392 451 16,000  Level Boston Center
Mon 10:30:01 AM 41.9939 -72.2836 260° West 392 451 16,000  Level Boston Center
Mon 10:31:01 AM 41.9772 -72.4150 260° West 392 451 16,000 -50 Level Boston Center
Mon 10:32:02 AM 41.9586 -72.5658 261° West 392 451 15,900 -50 Descending Boston Center
Mon 10:33:02 AM 41.9375 -72.7108 259° West 392 451 15,900  Level Boston Center
Mon 10:34:03 AM 41.9017 -72.8472 251° West 392 451 15,900  Level Boston Center
Mon 10:35:01 AM 41.8761 -72.9586 253° West 392 451 15,900 -504 Level Boston Center
Mon 10:36:02 AM 41.8397 -73.1200 253° West 392 451 14,900 -942 Descending Boston Center
Mon 10:37:02 AM 41.8097 -73.2422 252° West 385 443 14,000 -500 Descending Boston Center
Mon 10:38:02 AM 41.7775 -73.3753 252° West 385 443 13,900 -50 Descending Boston Center
Mon 10:39:03 AM 41.7347 -73.5167 248° West 385 443 13,900 -353 Level Boston Center
Mon 10:40:01 AM 41.6836 -73.6214 237° Southwest 380 437 13,200 -908 Descending Boston Center
Mon 10:41:02 AM 41.6239 -73.7508 238° Southwest 380 437 12,100 -992 Descending Boston Center
Mon 10:42:02 AM 41.5767 -73.8497 237° Southwest 366 421 11,200 -1,736 Descending Boston Center
Mon 10:43:03 AM 41.5297 -73.9486 238° Southwest 318 366 8,600 -1,937 Descending Boston Center
Mon 10:44:09 AM 41.4833 -74.0500 239° Southwest 282 325 7,100 -762 Descending New York TRACON
Mon 10:45:09 AM 41.4333 -74.1333 231° Southwest 272 313 7,000 -50 Descending New York TRACON
Mon 10:46:09 AM 41.3833 -74.2000 225° Southwest 284 327 7,000 -250 Level New York TRACON
Mon 10:47:09 AM 41.3167 -74.2667 217° Southwest 283 326 6,500 -450 Descending New York TRACON
Mon 10:48:09 AM 41.2667 -74.3333 225° Southwest 278 320 6,100 -250 Descending New York TRACON
Mon 10:49:09 AM 41.2000 -74.3833 209° Southwest 285 328 6,000 -50 Descending New York TRACON
Mon 10:50:09 AM 41.1167 -74.3500 163° South 285 328 6,000 -250 Level New York TRACON
Mon 10:51:09 AM 41.0333 -74.3333 171° South 282 325 5,500 -474 Descending New York TRACON
Mon 10:52:03 AM 40.9833 -74.3167 166° South 281 323 5,100 -526 Descending New York TRACON
Mon 10:53:03 AM 40.9333 -74.2333 128° Southeast 279 321 4,500 -550 Descending New York TRACON
Mon 10:54:03 AM 40.9167 -74.1333 102° East 260 299 4,000 -368 Descending New York TRACON
Mon 10:54:57 AM 40.9000 -74.0667 108° East 215 247 3,800 -368 Descending New York TRACON
Mon 10:55:57 AM 40.8333 -74.0667 180° South 196 226 3,300 -850 Descending New York TRACON
Mon 10:56:57 AM 40.8000 -74.1000 217° Southwest 195 224 2,100 -1,050 Descending New York TRACON
Mon 10:57:57 AM 40.7500 -74.1333 207° Southwest 149 171 1,200 -800 Descending New York TRACON
Mon 10:58:57 AM 40.7167 -74.1500 201° Southwest 141 162 500 -700 Descending New York TRACON

Login

Don't have an account? Register now (free) for customized features, flight alerts, and more!